Time;durP1;ratioP1;P1;durP2;ratioP2;P2;SDS_P1;SDS_P2;PMS_P1;PMS_P2;Temp;Humidity;BMP_temperature;BMP_pressure;BME280_temperature;BME280_humidity;BME280_pressure;Samples;Min_cycle;Max_cycle;Signal;HPM_P1;HPM_P2
2023/07/11 00:00:44;;;;;;;3.85;2.53;;;19.70;92.00;;;;;;5073336;28;20169;-77
2023/07/11 00:03:11;;;;;;;6.65;3.30;;;19.70;93.20;;;;;;5054798;28;20230;-77
2023/07/11 00:05:37;;;;;;;7.68;3.13;;;19.80;91.60;;;;;;5073156;28;20161;-77
2023/07/11 00:08:02;;;;;;;6.85;2.75;;;19.80;89.70;;;;;;5076886;28;20184;-76
2023/07/11 00:10:28;;;;;;;5.30;2.72;;;19.70;92.00;;;;;;5077133;28;20199;-76
2023/07/11 00:12:54;;;;;;;7.47;2.60;;;19.70;94.00;;;;;;5077142;28;20175;-77
2023/07/11 00:15:20;;;;;;;10.60;2.80;;;19.50;97.80;;;;;;5077149;28;20196;-76
2023/07/11 00:17:47;;;;;;;8.65;2.80;;;19.50;99.90;;;;;;5076988;28;20200;-77
2023/07/11 00:20:14;;;;;;;7.15;2.83;;;19.40;99.90;;;;;;5076895;28;20184;-76
2023/07/11 00:22:42;;;;;;;6.25;2.80;;;19.40;99.90;;;;;;5076460;28;20187;-77
2023/07/11 00:25:09;;;;;;;9.70;3.40;;;19.40;99.90;;;;;;5076692;28;20247;-78
2023/07/11 00:27:35;;;;;;;3.97;3.17;;;19.40;99.90;;;;;;5076819;28;20256;-78
2023/07/11 00:30:02;;;;;;;9.57;2.95;;;19.30;99.90;;;;;;5076538;28;20259;-78
2023/07/11 00:32:28;;;;;;;9.55;3.20;;;19.30;99.90;;;;;;5076488;28;20200;-77
2023/07/11 00:34:54;;;;;;;8.55;3.05;;;19.30;99.90;;;;;;5076250;28;20160;-77
2023/07/11 00:37:19;;;;;;;8.68;3.28;;;19.20;99.90;;;;;;5076457;28;20643;-77
2023/07/11 00:39:45;;;;;;;7.03;3.30;;;19.20;99.90;;;;;;5076285;28;20225;-77
2023/07/11 00:42:11;;;;;;;9.02;3.45;;;19.20;99.90;;;;;;5076385;28;20172;-77
2023/07/11 00:44:51;;;;;;;6.88;3.33;;;19.20;99.90;;;;;;5076878;28;20208;-78
2023/07/11 00:47:18;;;;;;;12.63;4.07;;;19.20;99.90;;;;;;5076542;28;20251;-78
2023/07/11 00:49:45;;;;;;;10.15;3.38;;;19.20;99.90;;;;;;5075907;28;20169;-78
2023/07/11 00:52:14;;;;;;;10.52;3.50;;;19.20;99.90;;;;;;5058520;28;20179;-78
2023/07/11 00:54:42;;;;;;;7.00;3.45;;;19.10;99.90;;;;;;5076374;28;20188;-78
2023/07/11 00:57:09;;;;;;;9.20;3.42;;;19.10;99.90;;;;;;5076411;28;20177;-78
2023/07/11 00:59:35;;;;;;;14.52;3.88;;;19.10;99.90;;;;;;5076217;28;20241;-78
2023/07/11 01:02:06;;;;;;;12.55;3.92;;;19.10;99.90;;;;;;5076321;28;20612;-78
2023/07/11 01:04:32;;;;;;;11.73;3.58;;;19.10;99.90;;;;;;5075824;28;20212;-78
2023/07/11 01:06:58;;;;;;;14.27;4.65;;;19.10;99.90;;;;;;5058075;28;20200;-77
2023/07/11 01:09:23;;;;;;;9.50;3.63;;;19.20;99.90;;;;;;5058211;28;20200;-78
2023/07/11 01:12:12;;;;;;;16.98;4.18;;;19.10;99.90;;;;;;5075993;28;20631;-77
2023/07/11 01:14:38;;;;;;;18.98;4.47;;;19.10;99.90;;;;;;5075881;28;20223;-77
2023/07/11 01:17:30;;;;;;;21.48;4.55;;;19.10;99.90;;;;;;5075826;28;20218;-78
2023/07/11 01:19:59;;;;;;;12.82;4.28;;;19.00;99.90;;;;;;5075068;28;20259;-78
2023/07/11 01:22:26;;;;;;;21.80;4.43;;;18.90;99.90;;;;;;5075800;28;20173;-78
2023/07/11 01:24:52;;;;;;;20.50;4.53;;;19.00;99.90;;;;;;5075494;28;20239;-78
2023/07/11 01:27:19;;;;;;;19.88;4.95;;;19.00;99.90;;;;;;5075318;28;20200;-77
2023/07/11 01:29:46;;;;;;;16.83;4.82;;;19.10;99.90;;;;;;5075577;28;20169;-77
2023/07/11 01:32:12;;;;;;;19.92;4.60;;;19.20;99.90;;;;;;5075325;28;20165;-77
2023/07/11 01:34:38;;;;;;;19.85;4.20;;;19.20;99.90;;;;;;5075053;28;20576;-77
2023/07/11 01:37:03;;;;;;;19.75;4.68;;;19.20;99.90;;;;;;5075648;28;20177;-77
2023/07/11 01:39:29;;;;;;;18.35;4.63;;;19.20;99.90;;;;;;5075300;28;20305;-76
2023/07/11 01:41:55;;;;;;;11.15;4.00;;;19.10;99.90;;;;;;5075225;28;20176;-76
2023/07/11 01:44:22;;;;;;;17.27;4.25;;;19.00;99.90;;;;;;5075259;28;20196;-77
2023/07/11 01:46:48;;;;;;;17.48;4.53;;;19.00;99.90;;;;;;5075552;28;20223;-77
2023/07/11 01:49:13;;;;;;;16.40;4.45;;;19.00;99.90;;;;;;5074980;28;20172;-77
2023/07/11 01:51:43;;;;;;;21.77;5.70;;;19.00;99.90;;;;;;5075092;28;20180;-77
2023/07/11 01:54:08;;;;;;;24.52;5.32;;;19.00;99.90;;;;;;5075156;28;20172;-79
2023/07/11 01:56:34;;;;;;;18.40;5.10;;;18.90;99.90;;;;;;5075121;28;20165;-79
2023/07/11 01:58:59;;;;;;;23.98;5.70;;;18.90;99.90;;;;;;5075048;28;20699;-77
2023/07/11 02:01:25;;;;;;;18.40;4.90;;;19.00;99.90;;;;;;5074878;28;20218;-77
2023/07/11 02:03:51;;;;;;;18.48;5.00;;;18.90;99.90;;;;;;5074617;28;20210;-78
2023/07/11 02:06:16;;;;;;;28.10;5.45;;;18.80;99.90;;;;;;5075034;28;20172;-78
2023/07/11 02:08:42;;;;;;;23.52;4.50;;;18.80;99.90;;;;;;5075021;28;20632;-78
2023/07/11 02:11:07;;;;;;;16.67;4.43;;;18.70;99.90;;;;;;5075167;28;20192;-78
2023/07/11 02:13:33;;;;;;;19.30;4.80;;;18.60;99.90;;;;;;5074727;28;20195;-77
2023/07/11 02:15:59;;;;;;;21.85;5.03;;;18.60;99.90;;;;;;5056980;28;20677;-77
2023/07/11 02:18:24;;;;;;;20.75;5.57;;;18.50;99.90;;;;;;5074516;28;20256;-78
2023/07/11 02:20:50;;;;;;;16.15;4.80;;;18.50;99.90;;;;;;5074820;28;20528;-78
2023/07/11 02:23:16;;;;;;;24.67;5.30;;;18.50;99.90;;;;;;5056749;28;20727;-76
2023/07/11 02:25:41;;;;;;;15.00;6.38;;;18.60;99.90;;;;;;5074527;28;20180;-77
2023/07/11 02:28:07;;;;;;;17.77;6.80;;;18.60;99.90;;;;;;5074627;28;20168;-77
2023/07/11 02:30:34;;;;;;;19.77;5.73;;;18.60;99.90;;;;;;5055819;28;20168;-77
2023/07/11 02:32:59;;;;;;;18.25;5.30;;;18.70;99.90;;;;;;5074346;28;20743;-77
2023/07/11 02:35:25;;;;;;;15.25;5.10;;;18.70;99.90;;;;;;5074423;28;20207;-77
2023/07/11 02:37:51;;;;;;;15.98;4.70;;;18.70;99.90;;;;;;5074408;28;20176;-77
2023/07/11 02:40:18;;;;;;;15.02;5.28;;;18.80;99.90;;;;;;5074067;28;20213;-78
2023/07/11 02:42:44;;;;;;;12.95;5.93;;;18.80;99.90;;;;;;5074696;28;20632;-78
2023/07/11 02:45:10;;;;;;;11.18;5.45;;;18.80;99.90;;;;;;5074455;28;20204;-78
2023/07/11 02:47:35;;;;;;;15.52;4.93;;;18.90;99.90;;;;;;5074050;28;20187;-78
2023/07/11 02:50:01;;;;;;;17.20;5.15;;;18.90;99.90;;;;;;5074421;28;20180;-78
2023/07/11 02:52:27;;;;;;;16.73;5.40;;;18.90;99.90;;;;;;5074076;28;20580;-77
2023/07/11 02:54:52;;;;;;;13.77;4.47;;;18.90;99.90;;;;;;5073733;28;20180;-77
2023/07/11 02:57:18;;;;;;;12.77;4.00;;;18.90;99.90;;;;;;5073961;28;20226;-77
2023/07/11 02:59:44;;;;;;;12.85;4.72;;;19.00;99.90;;;;;;5074256;28;20302;-77
2023/07/11 03:02:10;;;;;;;7.93;3.50;;;19.00;99.90;;;;;;5073479;28;20191;-77
2023/07/11 03:04:35;;;;;;;13.90;3.90;;;19.10;99.90;;;;;;5073686;28;20208;-77
2023/07/11 03:07:01;;;;;;;13.90;4.07;;;19.10;97.30;;;;;;5056261;28;20169;-77
2023/07/11 03:09:27;;;;;;;5.68;2.85;;;19.20;90.30;;;;;;5073573;28;20620;-78
2023/07/11 03:11:53;;;;;;;11.07;3.33;;;19.20;46.70;;;;;;5073659;28;20214;-77
2023/07/11 03:14:19;;;;;;;7.25;3.20;;;19.40;44.80;;;;;;5073475;28;20196;-77
2023/07/11 03:16:50;;;;;;;5.75;3.10;;;19.50;28.00;;;;;;5073753;28;20176;-77
2023/07/11 03:19:15;;;;;;;4.80;3.00;;;19.50;30.50;;;;;;5073478;28;20176;-77
2023/07/11 03:21:41;;;;;;;5.25;2.95;;;19.60;28.70;;;;;;5073475;28;20165;-78
2023/07/11 03:24:07;;;;;;;6.38;2.92;;;19.60;25.60;;;;;;5073512;28;20211;-78
2023/07/11 03:26:32;;;;;;;4.95;3.00;;;19.70;24.80;;;;;;5073692;28;20160;-76
2023/07/11 03:28:58;;;;;;;6.00;3.00;;;19.70;32.80;;;;;;5073160;28;20172;-77
2023/07/11 03:31:24;;;;;;;3.20;2.65;;;19.70;29.00;;;;;;5073406;28;20621;-77
2023/07/11 03:33:50;;;;;;;4.93;3.22;;;19.70;19.30;;;;;;5073244;28;20174;-76
2023/07/11 03:36:15;;;;;;;3.85;2.53;;;19.80;19.10;;;;;;5073275;28;20574;-76
2023/07/11 03:38:41;;;;;;;4.50;2.72;;;19.80;11.20;;;;;;5072797;28;20299;-76
2023/07/11 03:41:07;;;;;;;6.03;2.92;;;19.90;11.40;;;;;;5073132;28;20195;-76
2023/07/11 03:43:32;;;;;;;5.40;2.70;;;20.00;4.00;;;;;;5072303;28;20205;-76
2023/07/11 03:45:58;;;;;;;4.25;2.67;;;20.10;1.60;;;;;;5073785;28;20171;-77
2023/07/11 03:48:23;;;;;;;4.72;2.47;;;20.10;3.00;;;;;;5073590;28;20259;-76
2023/07/11 03:50:49;;;;;;;4.88;2.40;;;20.20;1.00;;;;;;5073066;28;20168;-76
2023/07/11 03:53:15;;;;;;;2.78;2.45;;;20.10;4.30;;;;;;5073014;28;20663;-76
2023/07/11 03:55:44;;;;;;;5.05;3.10;;;20.20;1.60;;;;;;5055219;28;20172;-75
2023/07/11 03:58:10;;;;;;;5.70;2.90;;;20.30;4.60;;;;;;5072585;28;20180;-77
2023/07/11 04:00:35;;;;;;;7.05;2.83;;;20.40;1.00;;;;;;5073233;28;20168;-77
2023/07/11 04:03:01;;;;;;;6.72;2.60;;;20.70;1.00;;;;;;5072900;28;20650;-76
2023/07/11 04:05:27;;;;;;;5.20;2.50;;;20.90;1.00;;;;;;5072795;28;20176;-75
2023/07/11 04:07:52;;;;;;;6.30;2.40;;;21.20;1.00;;;;;;5072588;28;20164;-76
2023/07/11 04:10:18;;;;;;;3.72;2.35;;;21.60;1.00;;;;;;5072280;28;20177;-76
2023/07/11 04:12:44;;;;;;;5.40;2.70;;;21.90;1.00;;;;;;5072826;28;20267;-77
2023/07/11 04:15:10;;;;;;;4.30;2.75;;;22.30;1.00;;;;;;5054463;28;20200;-76
2023/07/11 04:17:35;;;;;;;3.70;2.25;;;22.50;1.00;;;;;;5054870;28;20173;-75
2023/07/11 04:20:01;;;;;;;4.07;2.80;;;22.70;1.00;;;;;;5072630;28;20658;-75
2023/07/11 04:22:27;;;;;;;7.40;3.13;;;23.20;1.00;;;;;;5054469;28;20169;-74
2023/07/11 04:24:52;;;;;;;6.25;3.00;;;23.50;1.00;;;;;;5072547;28;20209;-75
2023/07/11 04:27:18;;;;;;;4.60;2.67;;;24.10;1.00;;;;;;5054006;28;20165;-75
2023/07/11 04:29:43;;;;;;;6.32;2.78;;;24.50;1.00;;;;;;5072513;28;20177;-75
2023/07/11 04:32:10;;;;;;;4.35;2.53;;;24.90;1.00;;;;;;5072423;28;20176;-75
2023/07/11 04:34:35;;;;;;;4.78;2.58;;;25.20;1.00;;;;;;5072271;28;20181;-75
2023/07/11 04:37:01;;;;;;;3.40;2.33;;;25.40;1.00;;;;;;5072589;28;20652;-75
2023/07/11 04:39:27;;;;;;;4.28;2.50;;;25.50;1.00;;;;;;5072335;28;20672;-75
2023/07/11 04:41:52;;;;;;;4.75;2.22;;;25.40;1.00;;;;;;5072173;28;20172;-74
2023/07/11 04:44:18;;;;;;;3.28;2.47;;;25.40;1.00;;;;;;5072147;28;20211;-75
2023/07/11 04:46:43;;;;;;;7.85;2.90;;;25.60;99.90;;;;;;5071559;28;20164;-74
2023/07/11 04:49:09;;;;;;;4.40;2.38;;;25.80;1.00;;;;;;5072299;28;20259;-75
2023/07/11 04:51:34;;;;;;;3.97;2.28;;;25.70;99.90;;;;;;5071861;28;20169;-75
2023/07/11 04:54:00;;;;;;;3.78;2.22;;;26.00;99.90;;;;;;5074307;28;20535;-75
2023/07/11 04:56:26;;;;;;;5.82;2.60;;;26.10;99.90;;;;;;5075209;28;20192;-74
2023/07/11 04:58:51;;;;;;;6.43;2.95;;;26.80;1.00;;;;;;5075545;28;20165;-74
2023/07/11 05:01:18;;;;;;;4.53;2.95;;;28.20;1.00;;;;;;5075907;28;20618;-74
2023/07/11 05:03:44;;;;;;;3.22;2.22;;;29.60;72.30;;;;;;5074979;28;20231;-73
2023/07/11 05:06:12;;;;;;;5.88;2.25;;;30.20;1.00;;;;;;5075576;28;20208;-73
2023/07/11 05:08:41;;;;;;;7.00;2.63;;;29.90;1.00;;;;;;5075287;28;20161;-73
2023/07/11 05:11:15;;;;;;;4.97;2.30;;;30.60;99.90;;;;;;5074756;28;20628;-73
2023/07/11 05:13:41;;;;;;;6.78;2.83;;;31.60;1.00;;;;;;5075450;28;20200;-73
2023/07/11 05:16:12;;;;;;;7.53;2.65;;;32.20;1.00;;;;;;5075607;28;20164;-73
2023/07/11 05:18:40;;;;;;;7.00;2.70;;;31.90;1.00;;;;;;5074805;28;20169;-74
2023/07/11 05:21:08;;;;;;;6.15;2.70;;;33.10;1.00;;;;;;5075396;28;20226;-74
2023/07/11 05:23:34;;;;;;;5.93;2.50;;;33.10;99.90;;;;;;5074660;28;20204;-73
2023/07/11 05:26:00;;;;;;;7.80;2.58;;;33.00;99.90;;;;;;5074571;28;20200;-73
2023/07/11 05:28:27;;;;;;;7.78;2.90;;;32.90;99.90;;;;;;5075503;28;20181;-73
2023/07/11 05:30:54;;;;;;;6.65;2.92;;;33.10;99.90;;;;;;5074786;28;20168;-73
2023/07/11 05:33:20;;;;;;;5.70;2.63;;;33.30;99.90;;;;;;5074596;28;20176;-73
2023/07/11 05:36:05;;;;;;;3.40;2.53;;;34.00;99.90;;;;;;5075210;28;20271;-73
2023/07/11 05:38:32;;;;;;;5.53;2.42;;;33.40;99.90;;;;;;5074673;28;20319;-74
2023/07/11 05:40:58;;;;;;;4.10;2.65;;;34.20;99.90;;;;;;5055598;28;20173;-74
2023/07/11 05:43:24;;;;;;;2.42;2.20;;;34.50;99.90;;;;;;5075038;28;20199;-74
2023/07/11 05:45:50;;;;;;;4.45;2.50;;;33.90;99.90;;;;;;5074952;28;20177;-74
2023/07/11 05:48:15;;;;;;;4.80;2.60;;;33.20;99.90;;;;;;5074671;28;20196;-75
2023/07/11 05:50:41;;;;;;;3.67;2.33;;;33.60;99.90;;;;;;5074261;28;20317;-74
2023/07/11 05:53:07;;;;;;;3.53;2.13;;;33.90;99.90;;;;;;5074595;28;20624;-73
2023/07/11 05:55:32;;;;;;;3.15;2.70;;;33.90;99.90;;;;;;5073947;28;20168;-74
2023/07/11 05:57:58;;;;;;;3.22;2.35;;;33.90;99.90;;;;;;5074740;28;20169;-74
2023/07/11 06:00:23;;;;;;;5.60;2.55;;;34.90;99.90;;;;;;5074219;28;20183;-75
2023/07/11 06:02:49;;;;;;;3.90;2.30;;;34.60;99.90;;;;;;5073806;28;20169;-74
2023/07/11 06:05:15;;;;;;;3.28;2.25;;;34.50;99.90;;;;;;5074019;28;20566;-75
2023/07/11 06:07:41;;;;;;;4.82;2.65;;;34.90;99.90;;;;;;5074473;28;20203;-75
2023/07/11 06:10:07;;;;;;;4.82;2.45;;;34.90;99.90;;;;;;5073798;28;20169;-75
2023/07/11 06:12:33;;;;;;;4.63;2.65;;;34.30;99.90;;;;;;5055744;28;20173;-75
2023/07/11 06:14:59;;;;;;;6.28;2.53;;;33.90;99.90;;;;;;5074137;28;20307;-75
2023/07/11 06:17:26;;;;;;;4.10;2.80;;;34.70;99.90;;;;;;5074309;28;20223;-78
2023/07/11 06:19:51;;;;;;;5.13;2.20;;;35.10;99.90;;;;;;5073546;28;20532;-76
2023/07/11 06:22:17;;;;;;;7.43;2.38;;;36.40;99.90;;;;;;5055932;28;20172;-78
2023/07/11 06:24:43;;;;;;;6.10;2.83;;;36.70;99.90;;;;;;5073695;28;20200;-77
2023/07/11 06:27:08;;;;;;;3.95;2.00;;;35.70;99.90;;;;;;5055742;28;20176;-77
2023/07/11 06:29:34;;;;;;;3.33;2.35;;;36.50;99.90;;;;;;5073516;28;20178;-75
2023/07/11 06:32:00;;;;;;;5.68;2.75;;;35.90;99.90;;;;;;5073174;28;20225;-78
2023/07/11 06:34:25;;;;;;;5.57;2.67;;;35.90;99.90;;;;;;5073957;28;20168;-78
2023/07/11 06:36:51;;;;;;;4.18;2.58;;;36.00;99.90;;;;;;5055723;28;20179;-78
2023/07/11 06:39:16;;;;;;;4.25;2.13;;;35.10;99.90;;;;;;5073111;28;20250;-77
2023/07/11 06:41:42;;;;;;;2.20;2.00;;;35.50;99.90;;;;;;5072985;28;20177;-76
2023/07/11 06:44:08;;;;;;;3.58;2.25;;;36.00;99.90;;;;;;5072887;28;20265;-79
2023/07/11 06:46:34;;;;;;;7.40;2.72;;;36.80;99.90;;;;;;5073384;28;20179;-77
2023/07/11 06:49:01;;;;;;;4.18;2.45;;;37.50;99.90;;;;;;5055066;28;20185;-77
2023/07/11 06:51:28;;;;;;;2.75;2.20;;;37.70;99.90;;;;;;5073197;28;20215;-77
2023/07/11 06:53:54;;;;;;;8.80;3.08;;;37.40;99.90;;;;;;5073306;28;20267;-77
2023/07/11 06:56:20;;;;;;;5.85;2.80;;;39.00;99.90;;;;;;5073031;28;20533;-76
2023/07/11 06:58:47;;;;;;;6.50;2.55;;;40.00;91.10;;;;;;5073425;28;20182;-76
2023/07/11 07:01:14;;;;;;;3.00;2.25;;;40.20;69.50;;;;;;5073067;28;20199;-77
2023/07/11 07:03:40;;;;;;;5.38;2.55;;;40.00;49.20;;;;;;5072870;28;20223;-77
2023/07/11 07:06:09;;;;;;;9.60;2.55;;;39.20;39.20;;;;;;5072981;28;20627;-77
2023/07/11 07:08:35;;;;;;;4.25;2.90;;;39.00;59.80;;;;;;5072891;28;20243;-77
2023/07/11 07:11:01;;;;;;;7.65;3.15;;;37.10;32.90;;;;;;5073368;28;20271;-77
2023/07/11 07:13:27;;;;;;;3.45;2.78;;;35.90;51.80;;;;;;5072665;28;20685;-80
2023/07/11 07:15:58;;;;;;;12.30;3.38;;;34.50;99.90;;;;;;5072568;28;20168;-80
2023/07/11 07:18:25;;;;;;;4.72;3.20;;;33.80;99.90;;;;;;5073038;28;20480;-79
2023/07/11 07:20:53;;;;;;;3.65;3.35;;;33.80;99.90;;;;;;5072605;28;20196;-79
2023/07/11 07:23:19;;;;;;;4.43;3.25;;;33.50;99.90;;;;;;5073021;28;20393;-82
2023/07/11 07:25:54;;;;;;;4.00;2.80;;;34.80;99.90;;;;;;5073441;28;20205;-81
2023/07/11 07:28:20;;;;;;;5.32;2.72;;;36.00;99.90;;;;;;5072844;28;20233;-82
2023/07/11 07:30:47;;;;;;;5.22;3.05;;;36.80;99.90;;;;;;5073229;28;20251;-81
2023/07/11 07:33:14;;;;;;;5.43;2.92;;;37.40;99.90;;;;;;5072472;28;20176;-80
2023/07/11 07:35:40;;;;;;;6.53;2.75;;;38.10;99.90;;;;;;5054470;28;20697;-80
2023/07/11 07:38:06;;;;;;;4.82;2.60;;;38.40;99.90;;;;;;5072729;28;20183;-80
2023/07/11 07:40:32;;;;;;;5.88;2.35;;;38.80;99.30;;;;;;5054985;28;20580;-80
2023/07/11 07:42:58;;;;;;;6.50;2.47;;;39.50;91.80;;;;;;5072846;28;20172;-80
2023/07/11 07:45:23;;;;;;;3.95;2.40;;;38.80;72.60;;;;;;5072363;28;20242;-81
2023/07/11 07:47:49;;;;;;;8.18;2.30;;;38.80;70.90;;;;;;5072809;28;20239;-82
2023/07/11 07:50:15;;;;;;;4.25;2.47;;;38.70;76.70;;;;;;5072016;28;20596;-79
2023/07/11 07:52:41;;;;;;;4.13;2.42;;;39.40;77.90;;;;;;5072251;28;20263;-80
2023/07/11 07:55:07;;;;;;;2.92;2.50;;;38.90;72.10;;;;;;5072422;28;20180;-79
2023/07/11 07:57:33;;;;;;;3.50;2.15;;;39.50;78.10;;;;;;5072821;28;20164;-79
2023/07/11 07:59:58;;;;;;;3.28;2.20;;;39.40;60.10;;;;;;5072724;28;20168;-79
2023/07/11 08:02:24;;;;;;;4.93;2.50;;;38.90;55.70;;;;;;5072673;28;20650;-79
2023/07/11 08:04:50;;;;;;;4.50;2.20;;;39.20;60.70;;;;;;5071986;28;20218;-78
2023/07/11 08:07:16;;;;;;;6.10;2.40;;;39.50;59.10;;;;;;5072606;28;20183;-83
2023/07/11 08:09:43;;;;;;;3.97;1.80;;;39.70;52.80;;;;;;5072330;28;20217;-79
2023/07/11 08:12:10;;;;;;;5.20;2.42;;;38.60;53.10;;;;;;5072567;28;20186;-80
2023/07/11 08:14:38;;;;;;;6.80;2.30;;;38.90;59.60;;;;;;5072218;28;20190;-80
2023/07/11 08:17:05;;;;;;;4.85;2.33;;;38.40;58.80;;;;;;5072566;28;20169;-79
2023/07/11 08:19:31;;;;;;;6.57;2.28;;;39.10;73.40;;;;;;5071946;28;20270;-79
2023/07/11 08:21:56;;;;;;;4.72;2.25;;;39.10;62.00;;;;;;5071946;28;20214;-80
2023/07/11 08:24:23;;;;;;;5.07;2.22;;;39.40;59.50;;;;;;5072423;28;20690;-80
2023/07/11 08:26:48;;;;;;;4.00;2.45;;;38.20;61.10;;;;;;5072426;28;20188;-79
2023/07/11 08:29:14;;;;;;;4.65;2.30;;;37.80;83.40;;;;;;5075197;28;20168;-78
2023/07/11 08:31:39;;;;;;;3.92;2.40;;;38.20;95.20;;;;;;5075978;28;20176;-79
2023/07/11 08:34:05;;;;;;;3.83;2.10;;;39.10;91.10;;;;;;5057128;28;20168;-80
2023/07/11 08:36:31;;;;;;;5.75;2.45;;;38.00;96.30;;;;;;5075966;28;20633;-80
2023/07/11 08:38:56;;;;;;;8.70;2.60;;;38.30;91.70;;;;;;5075679;28;20215;-77
2023/07/11 08:41:44;;;;;;;3.03;2.13;;;37.50;99.90;;;;;;5075966;28;20670;-77
2023/07/11 08:44:35;;;;;;;4.72;2.40;;;36.90;99.90;;;;;;5077464;28;20657;-77
2023/07/11 08:47:09;;;;;;;6.18;2.42;;;37.30;99.90;;;;;;5076089;28;20662;-78
2023/07/11 08:49:48;;;;;;;3.58;2.47;;;37.30;99.90;;;;;;5075681;28;20164;-78
2023/07/11 08:52:17;;;;;;;5.55;2.25;;;37.20;99.90;;;;;;5075574;28;20172;-77
2023/07/11 08:55:00;;;;;;;3.65;2.25;;;37.80;99.90;;;;;;5075703;28;20187;-77
2023/07/11 08:57:29;;;;;;;4.65;2.45;;;37.00;99.90;;;;;;5075260;28;20186;-77
2023/07/11 09:00:05;;;;;;;4.28;2.65;;;36.50;99.90;;;;;;5075032;28;20160;-81
2023/07/11 09:02:48;;;;;;;3.70;2.20;;;37.10;99.90;;;;;;5057008;28;20229;-80
2023/07/11 09:05:29;;;;;;;3.78;2.60;;;37.10;99.90;;;;;;5075713;28;20278;-82
2023/07/11 09:07:56;;;;;;;4.88;2.47;;;36.80;99.90;;;;;;5076792;28;20192;-81
2023/07/11 09:10:28;;;;;;;4.38;2.50;;;37.00;99.90;;;;;;5077822;28;20175;-81
2023/07/11 09:13:04;;;;;;;7.65;2.80;;;37.40;99.90;;;;;;5075176;28;20186;-77
2023/07/11 09:16:04;;;;;;;6.40;2.60;;;38.10;99.90;;;;;;5075876;28;20575;-80
2023/07/11 09:18:50;;;;;;;5.18;2.55;;;37.00;99.90;;;;;;5075290;28;20207;-81
2023/07/11 09:22:01;;;;;;;7.97;3.15;;;36.90;99.90;;;;;;5075747;28;20202;-81
2023/07/11 09:24:43;;;;;;;5.32;2.53;;;36.70;99.90;;;;;;5075751;28;20659;-80
2023/07/11 09:27:32;;;;;;;5.82;2.83;;;35.40;99.90;;;;;;5075180;28;20173;-80
2023/07/11 09:29:59;;;;;;;5.68;2.13;;;35.70;99.90;;;;;;5075123;28;20168;-80
2023/07/11 09:32:33;;;;;;;3.78;2.25;;;36.30;99.90;;;;;;5074793;28;20204;-79
2023/07/11 09:35:20;;;;;;;6.97;2.65;;;36.90;99.90;;;;;;5075087;28;20595;-79
2023/07/11 09:37:51;;;;;;;6.40;2.50;;;36.90;99.90;;;;;;5075062;28;20266;-80
2023/07/11 09:40:38;;;;;;;8.05;2.60;;;37.20;99.90;;;;;;5074370;28;20685;-80
2023/07/11 09:43:04;;;;;;;6.82;2.20;;;37.30;99.90;;;;;;5074499;28;20168;-79
2023/07/11 09:45:36;;;;;;;3.40;2.20;;;37.90;99.90;;;;;;5075073;28;20211;-80
2023/07/11 09:48:05;;;;;;;5.00;2.20;;;37.20;99.90;;;;;;5074700;28;20171;-79
2023/07/11 09:50:47;;;;;;;3.65;2.60;;;36.00;99.90;;;;;;5074603;28;20218;-80
2023/07/11 09:53:23;;;;;;;6.07;2.85;;;35.60;99.90;;;;;;5074649;28;20165;-80
2023/07/11 09:55:57;;;;;;;6.20;2.55;;;36.60;99.90;;;;;;5056447;28;20171;-81
2023/07/11 09:58:26;;;;;;;5.30;2.72;;;36.60;99.90;;;;;;5075199;28;20631;-80
2023/07/11 10:00:53;;;;;;;5.88;2.25;;;35.80;99.90;;;;;;5074001;28;20172;-81
2023/07/11 10:03:21;;;;;;;6.15;2.80;;;36.40;99.90;;;;;;5074628;28;20196;-79
2023/07/11 10:05:50;;;;;;;3.35;2.50;;;36.70;99.90;;;;;;5056527;28;20176;-80
2023/07/11 10:08:18;;;;;;;6.88;2.70;;;36.70;99.90;;;;;;5074426;28;21274;-80
2023/07/11 10:10:49;;;;;;;6.03;2.70;;;36.50;99.90;;;;;;5074408;28;20192;-80
2023/07/11 10:13:16;;;;;;;9.30;3.50;;;36.30;99.90;;;;;;5073954;28;20245;-80
2023/07/11 10:15:42;;;;;;;4.85;2.30;;;36.00;99.90;;;;;;5073537;28;20176;-80
2023/07/11 10:18:27;;;;;;;3.45;2.45;;;36.10;99.90;;;;;;5074124;28;20635;-80
2023/07/11 10:21:01;;;;;;;3.28;2.50;;;35.20;99.90;;;;;;5074312;28;20180;-79
2023/07/11 10:23:27;;;;;;;6.95;2.70;;;35.10;99.90;;;;;;5074310;28;20207;-80
2023/07/11 10:26:23;;;;;;;3.47;2.50;;;35.50;99.90;;;;;;5074147;28;20214;-80
2023/07/11 10:29:00;;;;;;;8.15;2.67;;;35.80;99.90;;;;;;5066239;28;20180;-80
2023/07/11 10:31:32;;;;;;;4.07;2.80;;;35.50;99.90;;;;;;5073682;28;20572;-80
2023/07/11 10:34:02;;;;;;;4.97;2.83;;;35.40;99.90;;;;;;5073802;28;20164;-80
2023/07/11 10:36:56;;;;;;;3.08;2.60;;;35.20;99.90;;;;;;5056788;28;20298;-80
2023/07/11 10:39:28;;;;;;;4.20;2.75;;;35.20;99.90;;;;;;5071209;28;20222;-81
2023/07/11 10:42:02;;;;;;;3.08;2.67;;;35.30;99.90;;;;;;5073953;28;20177;-80
2023/07/11 10:44:38;;;;;;;2.65;2.45;;;35.60;99.90;;;;;;5073658;28;20592;-80
2023/07/11 10:47:04;;;;;;;5.88;2.75;;;35.70;99.90;;;;;;5074005;28;20562;-80
2023/07/11 10:49:35;;;;;;;5.25;3.03;;;36.50;99.90;;;;;;5056356;28;20515;-80
2023/07/11 10:52:23;;;;;;;5.13;2.95;;;36.20;99.90;;;;;;5072643;28;20263;-82
2023/07/11 10:55:16;;;;;;;3.10;2.80;;;36.30;99.90;;;;;;5073199;28;20251;-79
2023/07/11 10:57:51;;;;;;;4.80;2.67;;;35.90;99.90;;;;;;5076288;28;20160;-81
2023/07/11 11:00:28;;;;;;;3.40;2.75;;;34.80;99.90;;;;;;5074459;28;20610;-82
2023/07/11 11:03:35;;;;;;;4.55;3.03;;;34.10;99.90;;;;;;5074176;28;20168;-81
2023/07/11 11:06:06;;;;;;;3.95;2.60;;;34.30;99.90;;;;;;4972619;28;20246;-82
2023/07/11 11:08:53;;;;;;;4.18;2.80;;;34.50;99.90;;;;;;4972329;28;20703;-82
2023/07/11 11:11:24;;;;;;;4.32;2.95;;;34.70;99.90;;;;;;5039716;28;20180;-81
2023/07/11 11:14:05;;;;;;;5.68;3.13;;;34.30;99.90;;;;;;5073206;28;20219;-81
2023/07/11 11:16:43;;;;;;;3.42;2.83;;;34.80;99.90;;;;;;5073273;28;20184;-80
2023/07/11 11:19:55;;;;;;;5.68;2.97;;;35.10;99.90;;;;;;5073302;28;20168;-80
2023/07/11 11:22:28;;;;;;;2.85;2.60;;;34.70;99.90;;;;;;5035312;28;20176;-82
2023/07/11 11:25:03;;;;;;;6.85;2.88;;;34.00;99.90;;;;;;5060303;28;20211;-81
2023/07/11 11:28:04;;;;;;;5.15;2.92;;;33.70;99.90;;;;;;5073463;28;20684;-79
2023/07/11 11:30:39;;;;;;;7.32;2.85;;;33.70;1.00;;;;;;5073871;28;20698;-80
2023/07/11 11:33:23;;;;;;;3.40;2.45;;;34.70;99.90;;;;;;5074078;28;20258;-81
2023/07/11 11:36:26;;;;;;;5.05;2.33;;;34.90;99.90;;;;;;5075501;28;20256;-80
2023/07/11 11:39:18;;;;;;;4.70;2.58;;;33.80;99.90;;;;;;5077115;28;20215;-79
2023/07/11 11:41:54;;;;;;;7.10;2.72;;;33.50;1.00;;;;;;5072627;28;20188;-79
2023/07/11 11:44:45;;;;;;;4.05;2.55;;;32.90;1.00;;;;;;5072660;28;20284;-79
2023/07/11 11:47:11;;;;;;;6.85;2.35;;;33.20;1.00;;;;;;5073061;28;20181;-78
2023/07/11 11:49:39;;;;;;;5.95;2.78;;;33.00;1.00;;;;;;5073418;28;20173;-79
2023/07/11 11:52:06;;;;;;;5.43;2.63;;;33.00;1.00;;;;;;5072898;28;20179;-80
2023/07/11 11:54:50;;;;;;;2.45;1.95;;;32.90;1.00;;;;;;5054878;28;20267;-79
2023/07/11 11:57:26;;;;;;;4.32;2.70;;;32.90;1.00;;;;;;5072371;28;20173;-79
2023/07/11 11:59:51;;;;;;;7.15;2.80;;;32.10;1.00;;;;;;5072714;28;20172;-78
2023/07/11 12:02:29;;;;;;;3.78;2.67;;;32.30;99.50;;;;;;5073499;28;20200;-80
2023/07/11 12:05:16;;;;;;;8.95;2.92;;;32.20;95.10;;;;;;5076712;28;20315;-80
2023/07/11 12:07:42;;;;;;;4.32;2.70;;;32.20;99.90;;;;;;5077040;28;20175;-79
2023/07/11 12:10:10;;;;;;;3.42;2.42;;;31.70;99.90;;;;;;5077757;28;20172;-79
2023/07/11 12:12:35;;;;;;;5.32;3.35;;;31.30;1.00;;;;;;5076051;28;20168;-79
2023/07/11 12:15:21;;;;;;;8.98;2.85;;;31.50;1.00;;;;;;5076797;28;20199;-78
2023/07/11 12:17:49;;;;;;;3.67;2.47;;;32.00;99.90;;;;;;5058933;28;20202;-78
2023/07/11 12:20:25;;;;;;;6.53;2.83;;;32.00;1.00;;;;;;5076512;28;20180;-78
2023/07/11 12:22:51;;;;;;;8.98;3.08;;;32.10;99.90;;;;;;5058055;28;20176;-77
2023/07/11 12:25:16;;;;;;;3.90;2.45;;;31.90;99.90;;;;;;5076265;28;20606;-78
2023/07/11 12:27:42;;;;;;;4.45;2.70;;;31.90;1.00;;;;;;5076000;28;20192;-79
2023/07/11 12:30:14;;;;;;;4.32;2.55;;;31.70;1.00;;;;;;5076413;28;20632;-78
2023/07/11 12:32:40;;;;;;;7.28;3.15;;;31.80;1.00;;;;;;5076406;28;20196;-77
2023/07/11 12:35:06;;;;;;;4.53;2.80;;;31.80;1.00;;;;;;5075715;28;20160;-78
2023/07/11 12:37:43;;;;;;;9.88;2.70;;;32.00;1.00;;;;;;5058345;28;20180;-79
2023/07/11 12:40:28;;;;;;;4.32;2.90;;;32.10;99.90;;;;;;5075446;28;20216;-79
2023/07/11 12:42:56;;;;;;;5.95;2.40;;;32.30;99.90;;;;;;5076046;28;20200;-78
2023/07/11 12:45:25;;;;;;;5.03;2.88;;;32.20;99.90;;;;;;5075840;28;20215;-78
2023/07/11 12:48:11;;;;;;;3.15;2.22;;;32.10;99.90;;;;;;5075833;28;20191;-77
2023/07/11 12:50:41;;;;;;;4.60;2.33;;;31.90;99.90;;;;;;5075987;28;20226;-77
2023/07/11 12:53:06;;;;;;;3.80;2.63;;;32.10;99.90;;;;;;5076153;28;20172;-78
2023/07/11 12:55:32;;;;;;;4.45;2.72;;;32.20;99.90;;;;;;5075425;28;20173;-77
2023/07/11 12:57:58;;;;;;;4.10;2.60;;;31.90;1.00;;;;;;5075576;28;20526;-76